sensor_id;sensor_type;location;lat;lon;timestamp;temperature;humidity
54168;DHT22;68429;50.958;3.592;2023-04-03T00:00:57;1.90;99.90
54168;DHT22;68429;50.958;3.592;2023-04-03T00:03:22;1.80;99.90
54168;DHT22;68429;50.958;3.592;2023-04-03T00:05:48;1.80;99.90
54168;DHT22;68429;50.958;3.592;2023-04-03T00:08:14;1.90;99.90
54168;DHT22;68429;50.958;3.592;2023-04-03T00:10:40;1.80;99.90
54168;DHT22;68429;50.958;3.592;2023-04-03T00:13:07;1.80;99.90
54168;DHT22;68429;50.958;3.592;2023-04-03T00:15:34;1.70;99.90
54168;DHT22;68429;50.958;3.592;2023-04-03T00:17:59;1.70;99.90
54168;DHT22;68429;50.958;3.592;2023-04-03T00:20:25;1.60;99.90
54168;DHT22;68429;50.958;3.592;2023-04-03T00:22:53;1.60;99.90
54168;DHT22;68429;50.958;3.592;2023-04-03T00:25:19;1.90;99.90
54168;DHT22;68429;50.958;3.592;2023-04-03T00:27:45;2.10;99.90
54168;DHT22;68429;50.958;3.592;2023-04-03T00:30:16;2.30;99.90
54168;DHT22;68429;50.958;3.592;2023-04-03T00:32:42;2.30;99.90
54168;DHT22;68429;50.958;3.592;2023-04-03T00:35:08;2.30;99.90
54168;DHT22;68429;50.958;3.592;2023-04-03T00:37:34;2.20;99.90
54168;DHT22;68429;50.958;3.592;2023-04-03T00:39:59;2.10;99.90
54168;DHT22;68429;50.958;3.592;2023-04-03T00:42:25;1.90;99.90
54168;DHT22;68429;50.958;3.592;2023-04-03T00:47:24;1.70;99.90
54168;DHT22;68429;50.958;3.592;2023-04-03T00:49:51;1.60;99.90
54168;DHT22;68429;50.958;3.592;2023-04-03T00:52:20;1.60;99.90
54168;DHT22;68429;50.958;3.592;2023-04-03T00:54:47;1.60;99.90
54168;DHT22;68429;50.958;3.592;2023-04-03T00:57:14;1.70;99.90
54168;DHT22;68429;50.958;3.592;2023-04-03T00:59:45;1.50;99.90
54168;DHT22;68429;50.958;3.592;2023-04-03T01:02:12;1.60;99.90
54168;DHT22;68429;50.958;3.592;2023-04-03T01:04:40;1.60;99.90
54168;DHT22;68429;50.958;3.592;2023-04-03T01:07:09;1.60;99.90
54168;DHT22;68429;50.958;3.592;2023-04-03T01:09:36;1.70;99.90
54168;DHT22;68429;50.958;3.592;2023-04-03T01:12:42;1.60;99.90
54168;DHT22;68429;50.958;3.592;2023-04-03T01:15:12;1.60;99.90
54168;DHT22;68429;50.958;3.592;2023-04-03T01:17:39;1.60;99.90
54168;DHT22;68429;50.958;3.592;2023-04-03T01:25:24;1.60;99.90
54168;DHT22;68429;50.958;3.592;2023-04-03T01:27:50;1.50;99.90
54168;DHT22;68429;50.958;3.592;2023-04-03T01:30:19;1.40;99.90
54168;DHT22;68429;50.958;3.592;2023-04-03T01:32:45;1.40;99.90
54168;DHT22;68429;50.958;3.592;2023-04-03T01:35:12;1.50;99.90
54168;DHT22;68429;50.958;3.592;2023-04-03T01:37:37;1.50;99.90
54168;DHT22;68429;50.958;3.592;2023-04-03T01:40:03;1.50;99.90
54168;DHT22;68429;50.958;3.592;2023-04-03T01:42:29;1.50;99.90
54168;DHT22;68429;50.958;3.592;2023-04-03T01:44:55;1.50;99.90
54168;DHT22;68429;50.958;3.592;2023-04-03T01:47:21;1.40;99.90
54168;DHT22;68429;50.958;3.592;2023-04-03T01:49:47;1.60;99.90
54168;DHT22;68429;50.958;3.592;2023-04-03T01:52:13;1.40;99.90
54168;DHT22;68429;50.958;3.592;2023-04-03T01:54:38;1.50;99.90
54168;DHT22;68429;50.958;3.592;2023-04-03T01:57:04;1.40;99.90
54168;DHT22;68429;50.958;3.592;2023-04-03T01:59:30;1.50;99.90
54168;DHT22;68429;50.958;3.592;2023-04-03T02:01:56;1.60;99.90
54168;DHT22;68429;50.958;3.592;2023-04-03T02:04:22;1.60;99.90
54168;DHT22;68429;50.958;3.592;2023-04-03T02:06:48;1.60;99.90
54168;DHT22;68429;50.958;3.592;2023-04-03T02:09:13;1.40;99.90
54168;DHT22;68429;50.958;3.592;2023-04-03T02:11:39;1.30;99.90
54168;DHT22;68429;50.958;3.592;2023-04-03T02:14:06;1.30;99.90
54168;DHT22;68429;50.958;3.592;2023-04-03T02:16:31;1.30;99.90
54168;DHT22;68429;50.958;3.592;2023-04-03T02:18:57;1.30;99.90
54168;DHT22;68429;50.958;3.592;2023-04-03T02:21:23;1.40;99.90
54168;DHT22;68429;50.958;3.592;2023-04-03T02:23:49;1.30;99.90
54168;DHT22;68429;50.958;3.592;2023-04-03T02:26:16;1.20;99.90
54168;DHT22;68429;50.958;3.592;2023-04-03T02:28:42;1.30;99.90
54168;DHT22;68429;50.958;3.592;2023-04-03T02:31:08;1.30;99.90
54168;DHT22;68429;50.958;3.592;2023-04-03T02:33:35;1.20;99.90
54168;DHT22;68429;50.958;3.592;2023-04-03T02:36:02;1.30;99.90
54168;DHT22;68429;50.958;3.592;2023-04-03T02:38:28;1.60;99.90
54168;DHT22;68429;50.958;3.592;2023-04-03T02:41:03;1.90;99.90
54168;DHT22;68429;50.958;3.592;2023-04-03T02:43:28;2.00;99.90
54168;DHT22;68429;50.958;3.592;2023-04-03T02:45:54;1.80;99.90
54168;DHT22;68429;50.958;3.592;2023-04-03T02:48:20;1.70;99.90
54168;DHT22;68429;50.958;3.592;2023-04-03T02:50:46;1.60;99.90
54168;DHT22;68429;50.958;3.592;2023-04-03T02:53:11;1.50;99.90
54168;DHT22;68429;50.958;3.592;2023-04-03T02:55:37;1.40;99.90
54168;DHT22;68429;50.958;3.592;2023-04-03T02:58:03;1.60;99.90
54168;DHT22;68429;50.958;3.592;2023-04-03T03:00:29;1.80;99.90
54168;DHT22;68429;50.958;3.592;2023-04-03T03:02:55;1.70;99.90
54168;DHT22;68429;50.958;3.592;2023-04-03T03:05:21;1.60;99.90
54168;DHT22;68429;50.958;3.592;2023-04-03T03:07:47;1.40;99.90
54168;DHT22;68429;50.958;3.592;2023-04-03T03:10:13;1.40;99.90
54168;DHT22;68429;50.958;3.592;2023-04-03T03:12:38;1.30;99.90
54168;DHT22;68429;50.958;3.592;2023-04-03T03:15:06;1.30;99.90
54168;DHT22;68429;50.958;3.592;2023-04-03T03:17:32;1.20;99.90
54168;DHT22;68429;50.958;3.592;2023-04-03T03:19:58;1.20;99.90
54168;DHT22;68429;50.958;3.592;2023-04-03T03:22:24;1.20;99.90
54168;DHT22;68429;50.958;3.592;2023-04-03T03:24:49;1.20;99.90
54168;DHT22;68429;50.958;3.592;2023-04-03T03:27:15;1.20;99.90
54168;DHT22;68429;50.958;3.592;2023-04-03T03:29:42;1.20;99.90
54168;DHT22;68429;50.958;3.592;2023-04-03T03:32:07;1.20;99.90
54168;DHT22;68429;50.958;3.592;2023-04-03T03:34:33;1.20;99.90
54168;DHT22;68429;50.958;3.592;2023-04-03T03:36:59;1.20;99.90
54168;DHT22;68429;50.958;3.592;2023-04-03T03:39:25;1.20;99.90
54168;DHT22;68429;50.958;3.592;2023-04-03T03:41:51;1.20;99.90
54168;DHT22;68429;50.958;3.592;2023-04-03T03:44:19;1.30;99.90
54168;DHT22;68429;50.958;3.592;2023-04-03T03:46:45;1.20;99.90
54168;DHT22;68429;50.958;3.592;2023-04-03T03:49:11;1.30;99.90
54168;DHT22;68429;50.958;3.592;2023-04-03T03:51:40;1.20;99.90
54168;DHT22;68429;50.958;3.592;2023-04-03T03:54:06;1.20;99.90
54168;DHT22;68429;50.958;3.592;2023-04-03T03:56:33;1.20;99.90
54168;DHT22;68429;50.958;3.592;2023-04-03T03:58:59;1.30;99.90
54168;DHT22;68429;50.958;3.592;2023-04-03T04:01:24;1.40;99.90
54168;DHT22;68429;50.958;3.592;2023-04-03T04:03:50;1.60;99.90
54168;DHT22;68429;50.958;3.592;2023-04-03T04:06:16;1.90;99.90
54168;DHT22;68429;50.958;3.592;2023-04-03T04:08:42;2.00;99.90
54168;DHT22;68429;50.958;3.592;2023-04-03T04:11:08;2.10;99.90
54168;DHT22;68429;50.958;3.592;2023-04-03T04:13:34;2.20;99.90
54168;DHT22;68429;50.958;3.592;2023-04-03T04:16:00;2.40;99.90
54168;DHT22;68429;50.958;3.592;2023-04-03T04:18:26;2.50;99.90
54168;DHT22;68429;50.958;3.592;2023-04-03T04:20:52;2.40;99.90
54168;DHT22;68429;50.958;3.592;2023-04-03T04:23:18;2.40;99.90
54168;DHT22;68429;50.958;3.592;2023-04-03T04:25:45;2.50;99.90
54168;DHT22;68429;50.958;3.592;2023-04-03T04:28:11;2.60;99.90
54168;DHT22;68429;50.958;3.592;2023-04-03T04:30:37;2.60;99.90
54168;DHT22;68429;50.958;3.592;2023-04-03T04:33:03;2.50;99.90
54168;DHT22;68429;50.958;3.592;2023-04-03T04:35:28;2.40;99.90
54168;DHT22;68429;50.958;3.592;2023-04-03T04:37:54;2.50;99.90
54168;DHT22;68429;50.958;3.592;2023-04-03T04:40:20;2.50;99.90
54168;DHT22;68429;50.958;3.592;2023-04-03T04:42:46;2.60;99.90
54168;DHT22;68429;50.958;3.592;2023-04-03T04:45:12;2.50;99.90
54168;DHT22;68429;50.958;3.592;2023-04-03T04:47:37;2.40;99.90
54168;DHT22;68429;50.958;3.592;2023-04-03T04:50:03;2.00;99.90
54168;DHT22;68429;50.958;3.592;2023-04-03T04:52:29;1.80;99.90
54168;DHT22;68429;50.958;3.592;2023-04-03T04:54:55;1.50;99.90
54168;DHT22;68429;50.958;3.592;2023-04-03T04:57:21;1.40;99.90
54168;DHT22;68429;50.958;3.592;2023-04-03T04:59:46;1.70;99.90
54168;DHT22;68429;50.958;3.592;2023-04-03T05:02:12;1.90;99.90
54168;DHT22;68429;50.958;3.592;2023-04-03T05:04:38;2.20;99.90
54168;DHT22;68429;50.958;3.592;2023-04-03T05:07:03;2.30;99.90
54168;DHT22;68429;50.958;3.592;2023-04-03T05:09:29;2.50;99.90
54168;DHT22;68429;50.958;3.592;2023-04-03T05:11:55;2.40;99.90
54168;DHT22;68429;50.958;3.592;2023-04-03T05:14:22;2.40;99.90
54168;DHT22;68429;50.958;3.592;2023-04-03T05:16:47;2.30;99.90
54168;DHT22;68429;50.958;3.592;2023-04-03T05:19:13;2.40;99.90
54168;DHT22;68429;50.958;3.592;2023-04-03T05:21:39;2.50;99.90
54168;DHT22;68429;50.958;3.592;2023-04-03T05:24:05;2.50;99.90
54168;DHT22;68429;50.958;3.592;2023-04-03T05:26:34;2.50;99.90
54168;DHT22;68429;50.958;3.592;2023-04-03T05:29:00;2.50;99.90
54168;DHT22;68429;50.958;3.592;2023-04-03T05:31:25;2.50;99.90
54168;DHT22;68429;50.958;3.592;2023-04-03T05:33:54;2.50;99.90
54168;DHT22;68429;50.958;3.592;2023-04-03T05:36:20;2.40;99.90
54168;DHT22;68429;50.958;3.592;2023-04-03T05:38:46;2.20;99.90
54168;DHT22;68429;50.958;3.592;2023-04-03T05:41:13;2.30;99.90
54168;DHT22;68429;50.958;3.592;2023-04-03T05:43:39;2.50;99.90
54168;DHT22;68429;50.958;3.592;2023-04-03T05:46:14;2.50;99.90
54168;DHT22;68429;50.958;3.592;2023-04-03T05:48:40;2.40;99.90
54168;DHT22;68429;50.958;3.592;2023-04-03T05:51:07;2.30;99.90
54168;DHT22;68429;50.958;3.592;2023-04-03T05:53:35;2.20;99.90
54168;DHT22;68429;50.958;3.592;2023-04-03T05:56:04;2.00;99.90
54168;DHT22;68429;50.958;3.592;2023-04-03T05:58:30;2.10;99.90
54168;DHT22;68429;50.958;3.592;2023-04-03T06:00:56;2.40;99.90
54168;DHT22;68429;50.958;3.592;2023-04-03T06:03:22;2.60;99.90
54168;DHT22;68429;50.958;3.592;2023-04-03T06:05:48;2.40;99.90
54168;DHT22;68429;50.958;3.592;2023-04-03T06:08:14;2.40;99.90
54168;DHT22;68429;50.958;3.592;2023-04-03T06:10:40;2.20;99.90
54168;DHT22;68429;50.958;3.592;2023-04-03T06:13:05;2.30;99.90
54168;DHT22;68429;50.958;3.592;2023-04-03T06:15:31;3.10;99.90
54168;DHT22;68429;50.958;3.592;2023-04-03T06:17:58;3.90;99.90
54168;DHT22;68429;50.958;3.592;2023-04-03T06:20:23;4.60;99.90
54168;DHT22;68429;50.958;3.592;2023-04-03T06:22:49;5.10;99.90
54168;DHT22;68429;50.958;3.592;2023-04-03T06:25:16;6.10;99.90
54168;DHT22;68429;50.958;3.592;2023-04-03T06:27:44;6.80;99.90
54168;DHT22;68429;50.958;3.592;2023-04-03T06:30:10;7.70;99.90
54168;DHT22;68429;50.958;3.592;2023-04-03T06:32:37;7.10;99.90
54168;DHT22;68429;50.958;3.592;2023-04-03T06:35:04;6.60;99.90
54168;DHT22;68429;50.958;3.592;2023-04-03T06:37:30;6.30;99.90
54168;DHT22;68429;50.958;3.592;2023-04-03T06:39:56;6.60;99.90
54168;DHT22;68429;50.958;3.592;2023-04-03T06:42:22;6.70;99.90
54168;DHT22;68429;50.958;3.592;2023-04-03T06:44:48;6.70;99.90
54168;DHT22;68429;50.958;3.592;2023-04-03T06:47:14;6.40;99.90
54168;DHT22;68429;50.958;3.592;2023-04-03T06:49:40;7.00;99.90
54168;DHT22;68429;50.958;3.592;2023-04-03T06:52:07;7.20;99.90
54168;DHT22;68429;50.958;3.592;2023-04-03T06:54:33;7.30;99.90
54168;DHT22;68429;50.958;3.592;2023-04-03T06:56:58;7.80;99.90
54168;DHT22;68429;50.958;3.592;2023-04-03T06:59:24;8.20;99.90
54168;DHT22;68429;50.958;3.592;2023-04-03T07:01:51;8.60;99.90
54168;DHT22;68429;50.958;3.592;2023-04-03T07:04:17;8.70;99.90
54168;DHT22;68429;50.958;3.592;2023-04-03T07:06:46;8.60;99.90
54168;DHT22;68429;50.958;3.592;2023-04-03T07:09:12;8.60;99.90
54168;DHT22;68429;50.958;3.592;2023-04-03T07:11:38;8.50;99.90
54168;DHT22;68429;50.958;3.592;2023-04-03T07:14:04;8.00;99.90
54168;DHT22;68429;50.958;3.592;2023-04-03T07:16:30;8.20;99.90
54168;DHT22;68429;50.958;3.592;2023-04-03T07:18:56;8.70;99.90
54168;DHT22;68429;50.958;3.592;2023-04-03T07:21:23;9.20;99.90
54168;DHT22;68429;50.958;3.592;2023-04-03T07:23:48;9.00;99.90
54168;DHT22;68429;50.958;3.592;2023-04-03T07:26:14;8.50;99.90
54168;DHT22;68429;50.958;3.592;2023-04-03T07:28:40;7.80;99.90
54168;DHT22;68429;50.958;3.592;2023-04-03T07:31:08;8.50;99.90
54168;DHT22;68429;50.958;3.592;2023-04-03T07:33:36;8.90;99.90
54168;DHT22;68429;50.958;3.592;2023-04-03T07:36:03;8.50;99.90
54168;DHT22;68429;50.958;3.592;2023-04-03T07:38:28;8.80;99.90
54168;DHT22;68429;50.958;3.592;2023-04-03T07:40:54;8.70;99.90
54168;DHT22;68429;50.958;3.592;2023-04-03T07:43:21;8.50;99.90
54168;DHT22;68429;50.958;3.592;2023-04-03T07:45:48;8.10;99.90
54168;DHT22;68429;50.958;3.592;2023-04-03T07:48:19;7.50;99.90
54168;DHT22;68429;50.958;3.592;2023-04-03T07:50:46;7.60;99.90
54168;DHT22;68429;50.958;3.592;2023-04-03T07:53:11;7.60;99.90
54168;DHT22;68429;50.958;3.592;2023-04-03T07:55:37;7.90;99.90
54168;DHT22;68429;50.958;3.592;2023-04-03T07:58:13;7.80;99.90
54168;DHT22;68429;50.958;3.592;2023-04-03T08:00:40;8.40;99.90
54168;DHT22;68429;50.958;3.592;2023-04-03T08:03:07;8.10;99.90
54168;DHT22;68429;50.958;3.592;2023-04-03T08:05:37;8.20;99.90
54168;DHT22;68429;50.958;3.592;2023-04-03T08:08:03;8.20;99.90
54168;DHT22;68429;50.958;3.592;2023-04-03T08:10:30;8.70;99.90
54168;DHT22;68429;50.958;3.592;2023-04-03T08:12:56;8.90;99.90
54168;DHT22;68429;50.958;3.592;2023-04-03T08:15:21;8.90;99.90
54168;DHT22;68429;50.958;3.592;2023-04-03T08:17:47;8.90;99.90
54168;DHT22;68429;50.958;3.592;2023-04-03T08:20:13;8.80;99.90
54168;DHT22;68429;50.958;3.592;2023-04-03T08:22:39;8.60;99.90
54168;DHT22;68429;50.958;3.592;2023-04-03T08:25:05;8.80;99.90
54168;DHT22;68429;50.958;3.592;2023-04-03T08:27:31;8.40;99.90
54168;DHT22;68429;50.958;3.592;2023-04-03T08:29:57;8.30;99.90
54168;DHT22;68429;50.958;3.592;2023-04-03T08:32:23;8.60;99.90
54168;DHT22;68429;50.958;3.592;2023-04-03T08:34:49;8.30;99.90
54168;DHT22;68429;50.958;3.592;2023-04-03T08:37:15;8.40;99.90
54168;DHT22;68429;50.958;3.592;2023-04-03T08:39:42;9.30;99.90
54168;DHT22;68429;50.958;3.592;2023-04-03T08:44:59;8.60;99.90
54168;DHT22;68429;50.958;3.592;2023-04-03T08:50:06;9.10;99.90
54168;DHT22;68429;50.958;3.592;2023-04-03T08:52:39;8.60;99.90
54168;DHT22;68429;50.958;3.592;2023-04-03T08:55:13;8.90;99.90
54168;DHT22;68429;50.958;3.592;2023-04-03T08:57:42;9.70;99.90
54168;DHT22;68429;50.958;3.592;2023-04-03T09:00:24;9.60;99.90
54168;DHT22;68429;50.958;3.592;2023-04-03T09:02:52;9.00;99.90
54168;DHT22;68429;50.958;3.592;2023-04-03T09:05:41;8.70;99.90
54168;DHT22;68429;50.958;3.592;2023-04-03T09:08:24;8.50;99.90
54168;DHT22;68429;50.958;3.592;2023-04-03T09:11:09;8.50;99.90
54168;DHT22;68429;50.958;3.592;2023-04-03T09:21:43;8.90;99.90
54168;DHT22;68429;50.958;3.592;2023-04-03T09:24:12;8.80;99.90
54168;DHT22;68429;50.958;3.592;2023-04-03T09:29:15;9.60;99.90
54168;DHT22;68429;50.958;3.592;2023-04-03T09:31:43;9.90;99.90
54168;DHT22;68429;50.958;3.592;2023-04-03T09:36:58;9.70;99.90
54168;DHT22;68429;50.958;3.592;2023-04-03T09:39:28;9.90;98.40
54168;DHT22;68429;50.958;3.592;2023-04-03T09:42:00;9.40;97.80
54168;DHT22;68429;50.958;3.592;2023-04-03T09:44:32;9.50;97.30
54168;DHT22;68429;50.958;3.592;2023-04-03T09:46:58;9.80;95.80
54168;DHT22;68429;50.958;3.592;2023-04-03T09:49:24;9.90;97.40
54168;DHT22;68429;50.958;3.592;2023-04-03T09:51:50;10.40;94.90
54168;DHT22;68429;50.958;3.592;2023-04-03T09:54:37;9.80;94.10
54168;DHT22;68429;50.958;3.592;2023-04-03T09:57:08;10.00;96.60
54168;DHT22;68429;50.958;3.592;2023-04-03T09:59:36;10.90;94.60
54168;DHT22;68429;50.958;3.592;2023-04-03T10:02:36;10.00;96.00
54168;DHT22;68429;50.958;3.592;2023-04-03T10:05:05;10.70;95.30
54168;DHT22;68429;50.958;3.592;2023-04-03T10:07:49;11.60;96.00
54168;DHT22;68429;50.958;3.592;2023-04-03T10:12:40;10.90;94.90
54168;DHT22;68429;50.958;3.592;2023-04-03T10:15:14;11.00;94.80
54168;DHT22;68429;50.958;3.592;2023-04-03T10:31:25;11.30;93.40
54168;DHT22;68429;50.958;3.592;2023-04-03T10:34:05;11.40;92.70
54168;DHT22;68429;50.958;3.592;2023-04-03T10:36:43;11.50;94.30
54168;DHT22;68429;50.958;3.592;2023-04-03T10:42:15;11.70;93.10
54168;DHT22;68429;50.958;3.592;2023-04-03T10:47:44;12.90;92.20
54168;DHT22;68429;50.958;3.592;2023-04-03T10:50:21;14.40;91.20
54168;DHT22;68429;50.958;3.592;2023-04-03T10:52:54;15.60;88.40
54168;DHT22;68429;50.958;3.592;2023-04-03T10:58:31;13.00;90.50
54168;DHT22;68429;50.958;3.592;2023-04-03T11:01:06;14.40;88.50
54168;DHT22;68429;50.958;3.592;2023-04-03T11:03:37;12.70;89.50
54168;DHT22;68429;50.958;3.592;2023-04-03T11:06:09;12.50;92.10
54168;DHT22;68429;50.958;3.592;2023-04-03T11:11:44;12.90;90.50
54168;DHT22;68429;50.958;3.592;2023-04-03T11:14:27;13.80;90.40
54168;DHT22;68429;50.958;3.592;2023-04-03T11:22:29;12.80;88.20
54168;DHT22;68429;50.958;3.592;2023-04-03T11:25:04;13.60;87.40
54168;DHT22;68429;50.958;3.592;2023-04-03T11:27:43;14.20;86.80
54168;DHT22;68429;50.958;3.592;2023-04-03T11:35:24;14.40;85.20
54168;DHT22;68429;50.958;3.592;2023-04-03T11:37:53;14.40;84.30
54168;DHT22;68429;50.958;3.592;2023-04-03T11:40:26;13.90;84.60
54168;DHT22;68429;50.958;3.592;2023-04-03T11:46:03;13.90;85.50
54168;DHT22;68429;50.958;3.592;2023-04-03T11:50:54;14.10;84.50
54168;DHT22;68429;50.958;3.592;2023-04-03T11:53:43;13.50;84.70
54168;DHT22;68429;50.958;3.592;2023-04-03T11:58:35;13.90;86.00
54168;DHT22;68429;50.958;3.592;2023-04-03T12:01:08;13.20;83.50
54168;DHT22;68429;50.958;3.592;2023-04-03T12:04:03;13.50;84.00
54168;DHT22;68429;50.958;3.592;2023-04-03T12:08:59;14.60;81.30
54168;DHT22;68429;50.958;3.592;2023-04-03T12:11:32;13.80;80.10
54168;DHT22;68429;50.958;3.592;2023-04-03T12:16:54;14.10;76.40
54168;DHT22;68429;50.958;3.592;2023-04-03T12:19:39;15.00;74.70
54168;DHT22;68429;50.958;3.592;2023-04-03T12:22:26;15.50;73.50
54168;DHT22;68429;50.958;3.592;2023-04-03T12:24:53;14.50;73.00
54168;DHT22;68429;50.958;3.592;2023-04-03T12:27:34;14.20;73.40
54168;DHT22;68429;50.958;3.592;2023-04-03T12:30:05;14.70;73.40
54168;DHT22;68429;50.958;3.592;2023-04-03T12:33:13;14.20;73.70
54168;DHT22;68429;50.958;3.592;2023-04-03T12:41:48;13.90;77.90
54168;DHT22;68429;50.958;3.592;2023-04-03T12:44:24;14.60;79.40
54168;DHT22;68429;50.958;3.592;2023-04-03T12:46:53;15.10;75.40
54168;DHT22;68429;50.958;3.592;2023-04-03T12:49:40;14.50;78.90
54168;DHT22;68429;50.958;3.592;2023-04-03T12:52:30;16.40;73.60
54168;DHT22;68429;50.958;3.592;2023-04-03T12:54:59;16.80;73.00
54168;DHT22;68429;50.958;3.592;2023-04-03T12:57:26;14.70;74.00
54168;DHT22;68429;50.958;3.592;2023-04-03T12:59:53;12.80;76.70
54168;DHT22;68429;50.958;3.592;2023-04-03T13:04:50;14.50;78.30
54168;DHT22;68429;50.958;3.592;2023-04-03T13:07:24;15.30;72.80
54168;DHT22;68429;50.958;3.592;2023-04-03T13:12:46;15.70;73.60
54168;DHT22;68429;50.958;3.592;2023-04-03T13:15:24;15.10;74.10
54168;DHT22;68429;50.958;3.592;2023-04-03T13:17:51;14.70;73.80
54168;DHT22;68429;50.958;3.592;2023-04-03T13:25:21;15.00;73.80
54168;DHT22;68429;50.958;3.592;2023-04-03T13:27:47;14.50;72.20
54168;DHT22;68429;50.958;3.592;2023-04-03T13:30:59;13.80;72.50
54168;DHT22;68429;50.958;3.592;2023-04-03T13:33:29;13.70;74.30
54168;DHT22;68429;50.958;3.592;2023-04-03T13:36:10;14.60;72.60
54168;DHT22;68429;50.958;3.592;2023-04-03T13:38:41;14.50;72.90
54168;DHT22;68429;50.958;3.592;2023-04-03T13:41:34;14.90;71.80
54168;DHT22;68429;50.958;3.592;2023-04-03T13:46:55;13.40;73.40
54168;DHT22;68429;50.958;3.592;2023-04-03T13:49:38;13.80;72.40
54168;DHT22;68429;50.958;3.592;2023-04-03T13:52:28;14.20;71.30
54168;DHT22;68429;50.958;3.592;2023-04-03T13:54:58;15.10;70.00
54168;DHT22;68429;50.958;3.592;2023-04-03T13:57:25;16.50;66.90
54168;DHT22;68429;50.958;3.592;2023-04-03T13:59:51;15.60;68.70
54168;DHT22;68429;50.958;3.592;2023-04-03T14:02:20;13.70;68.70
54168;DHT22;68429;50.958;3.592;2023-04-03T14:04:49;13.60;70.60
54168;DHT22;68429;50.958;3.592;2023-04-03T14:07:16;13.40;66.70
54168;DHT22;68429;50.958;3.592;2023-04-03T14:09:43;13.00;70.60
54168;DHT22;68429;50.958;3.592;2023-04-03T14:12:21;12.60;68.60
54168;DHT22;68429;50.958;3.592;2023-04-03T14:14:49;13.00;67.80
54168;DHT22;68429;50.958;3.592;2023-04-03T14:17:19;12.60;67.80
54168;DHT22;68429;50.958;3.592;2023-04-03T14:19:46;12.00;69.40
54168;DHT22;68429;50.958;3.592;2023-04-03T14:22:27;12.20;68.00
54168;DHT22;68429;50.958;3.592;2023-04-03T14:24:54;12.50;68.00
54168;DHT22;68429;50.958;3.592;2023-04-03T14:27:23;12.20;67.20
54168;DHT22;68429;50.958;3.592;2023-04-03T14:29:51;12.50;68.50
54168;DHT22;68429;50.958;3.592;2023-04-03T14:32:22;12.70;67.70
54168;DHT22;68429;50.958;3.592;2023-04-03T14:34:50;13.00;67.50
54168;DHT22;68429;50.958;3.592;2023-04-03T14:37:23;13.00;67.90
54168;DHT22;68429;50.958;3.592;2023-04-03T14:39:50;13.00;66.10
54168;DHT22;68429;50.958;3.592;2023-04-03T14:42:19;12.70;65.10
54168;DHT22;68429;50.958;3.592;2023-04-03T14:44:46;13.00;67.10
54168;DHT22;68429;50.958;3.592;2023-04-03T14:47:15;13.40;68.00
54168;DHT22;68429;50.958;3.592;2023-04-03T14:49:42;14.30;65.90
54168;DHT22;68429;50.958;3.592;2023-04-03T14:52:25;13.40;64.90
54168;DHT22;68429;50.958;3.592;2023-04-03T14:54:52;13.20;63.30
54168;DHT22;68429;50.958;3.592;2023-04-03T14:57:18;12.90;65.80
54168;DHT22;68429;50.958;3.592;2023-04-03T14:59:45;13.70;65.00
54168;DHT22;68429;50.958;3.592;2023-04-03T15:02:27;13.50;63.80
54168;DHT22;68429;50.958;3.592;2023-04-03T15:04:55;13.00;64.40
54168;DHT22;68429;50.958;3.592;2023-04-03T15:07:21;12.90;65.80
54168;DHT22;68429;50.958;3.592;2023-04-03T15:09:48;13.10;65.20
54168;DHT22;68429;50.958;3.592;2023-04-03T15:12:14;13.20;66.60
54168;DHT22;68429;50.958;3.592;2023-04-03T15:14:40;13.10;65.60
54168;DHT22;68429;50.958;3.592;2023-04-03T15:17:06;13.00;63.90
54168;DHT22;68429;50.958;3.592;2023-04-03T15:19:39;12.70;67.80
54168;DHT22;68429;50.958;3.592;2023-04-03T15:22:05;13.30;67.00
54168;DHT22;68429;50.958;3.592;2023-04-03T15:24:31;13.20;63.50
54168;DHT22;68429;50.958;3.592;2023-04-03T15:26:56;13.30;66.10
54168;DHT22;68429;50.958;3.592;2023-04-03T15:29:22;12.90;66.60
54168;DHT22;68429;50.958;3.592;2023-04-03T15:31:48;12.50;67.00
54168;DHT22;68429;50.958;3.592;2023-04-03T15:34:15;12.40;66.40
54168;DHT22;68429;50.958;3.592;2023-04-03T15:36:41;12.40;67.80
54168;DHT22;68429;50.958;3.592;2023-04-03T15:39:07;12.50;69.60
54168;DHT22;68429;50.958;3.592;2023-04-03T15:41:32;13.10;67.90
54168;DHT22;68429;50.958;3.592;2023-04-03T15:43:58;12.80;67.20
54168;DHT22;68429;50.958;3.592;2023-04-03T15:46:24;13.10;66.50
54168;DHT22;68429;50.958;3.592;2023-04-03T15:48:49;12.70;68.20
54168;DHT22;68429;50.958;3.592;2023-04-03T15:51:15;12.10;69.20
54168;DHT22;68429;50.958;3.592;2023-04-03T15:53:41;12.20;70.20
54168;DHT22;68429;50.958;3.592;2023-04-03T15:56:07;12.20;68.90
54168;DHT22;68429;50.958;3.592;2023-04-03T15:58:35;12.70;69.70
54168;DHT22;68429;50.958;3.592;2023-04-03T16:01:01;13.40;68.30
54168;DHT22;68429;50.958;3.592;2023-04-03T16:03:27;12.90;66.90
54168;DHT22;68429;50.958;3.592;2023-04-03T16:05:53;11.80;68.90
54168;DHT22;68429;50.958;3.592;2023-04-03T16:08:19;11.50;71.40
54168;DHT22;68429;50.958;3.592;2023-04-03T16:10:45;11.30;69.60
54168;DHT22;68429;50.958;3.592;2023-04-03T16:13:12;11.50;70.80
54168;DHT22;68429;50.958;3.592;2023-04-03T16:15:38;11.30;71.40
54168;DHT22;68429;50.958;3.592;2023-04-03T16:18:04;11.70;71.90
54168;DHT22;68429;50.958;3.592;2023-04-03T16:20:31;12.00;71.50
54168;DHT22;68429;50.958;3.592;2023-04-03T16:22:58;11.80;70.30
54168;DHT22;68429;50.958;3.592;2023-04-03T16:25:25;11.50;72.10
54168;DHT22;68429;50.958;3.592;2023-04-03T16:27:51;11.70;70.60
54168;DHT22;68429;50.958;3.592;2023-04-03T16:30:17;11.80;70.60
54168;DHT22;68429;50.958;3.592;2023-04-03T16:32:43;11.50;69.30
54168;DHT22;68429;50.958;3.592;2023-04-03T16:35:10;11.40;69.30
54168;DHT22;68429;50.958;3.592;2023-04-03T16:37:36;11.10;70.80
54168;DHT22;68429;50.958;3.592;2023-04-03T16:40:03;11.20;69.70
54168;DHT22;68429;50.958;3.592;2023-04-03T16:42:30;11.00;69.10
54168;DHT22;68429;50.958;3.592;2023-04-03T16:44:56;10.80;70.10
54168;DHT22;68429;50.958;3.592;2023-04-03T16:47:21;10.90;70.50
54168;DHT22;68429;50.958;3.592;2023-04-03T16:49:47;10.80;70.80
54168;DHT22;68429;50.958;3.592;2023-04-03T16:52:14;10.60;71.70
54168;DHT22;68429;50.958;3.592;2023-04-03T16:54:40;10.50;71.20
54168;DHT22;68429;50.958;3.592;2023-04-03T16:57:05;10.50;73.00
54168;DHT22;68429;50.958;3.592;2023-04-03T16:59:31;10.60;70.50
54168;DHT22;68429;50.958;3.592;2023-04-03T17:01:57;10.40;69.80
54168;DHT22;68429;50.958;3.592;2023-04-03T17:04:22;10.40;70.30
54168;DHT22;68429;50.958;3.592;2023-04-03T17:06:48;10.30;70.20
54168;DHT22;68429;50.958;3.592;2023-04-03T17:09:14;10.20;71.70
54168;DHT22;68429;50.958;3.592;2023-04-03T17:11:40;10.10;70.10
54168;DHT22;68429;50.958;3.592;2023-04-03T17:14:07;10.20;71.50
54168;DHT22;68429;50.958;3.592;2023-04-03T17:16:34;10.00;72.20
54168;DHT22;68429;50.958;3.592;2023-04-03T17:19:00;10.00;71.40
54168;DHT22;68429;50.958;3.592;2023-04-03T17:21:27;10.00;72.00
54168;DHT22;68429;50.958;3.592;2023-04-03T17:23:59;9.80;71.00
54168;DHT22;68429;50.958;3.592;2023-04-03T17:26:26;9.80;71.80